createdAt,value
2018-07-09T00:01:05.653Z,99.70
2018-07-09T00:03:35.096Z,99.40
2018-07-09T00:06:04.479Z,99.90
2018-07-09T00:08:33.889Z,99.90
2018-07-09T00:11:08.034Z,99.90
2018-07-09T00:13:38.307Z,99.90
2018-07-09T00:16:07.716Z,99.90
2018-07-09T00:18:36.877Z,99.90
2018-07-09T00:21:06.221Z,99.20
2018-07-09T00:23:35.272Z,96.40
2018-07-09T00:26:04.508Z,99.00
2018-07-09T00:28:33.772Z,99.90
2018-07-09T00:31:03.122Z,99.90
2018-07-09T00:33:32.282Z,99.90
2018-07-09T00:36:04.382Z,99.90
2018-07-09T00:38:33.780Z,98.00
2018-07-09T00:41:03.128Z,99.90
2018-07-09T00:43:32.400Z,99.90
2018-07-09T00:46:01.653Z,99.90
2018-07-09T00:48:30.920Z,99.90
2018-07-09T00:51:00.178Z,99.90
2018-07-09T00:53:29.320Z,99.90
2018-07-09T00:55:58.604Z,99.90
2018-07-09T00:58:28.113Z,97.90
2018-07-09T01:00:57.436Z,99.90
2018-07-09T01:03:26.601Z,99.90
2018-07-09T01:05:56.108Z,99.90
2018-07-09T01:08:25.229Z,99.90
2018-07-09T01:11:05.238Z,99.90
2018-07-09T01:13:44.552Z,99.90
2018-07-09T01:16:13.896Z,99.90
2018-07-09T01:18:43.621Z,99.90
2018-07-09T01:21:14.010Z,99.90
2018-07-09T01:23:43.284Z,99.90
2018-07-09T01:26:12.570Z,99.90
2018-07-09T01:28:42.616Z,99.90
2018-07-09T01:31:12.216Z,99.90
2018-07-09T01:33:41.552Z,99.90
2018-07-09T01:36:10.741Z,99.90
2018-07-09T01:38:40.151Z,99.90
2018-07-09T01:41:09.673Z,99.90
2018-07-09T01:43:38.996Z,99.90
2018-07-09T01:46:08.144Z,98.50
2018-07-09T01:48:37.712Z,99.90
2018-07-09T01:51:07.456Z,99.90
2018-07-09T01:53:36.649Z,99.90
2018-07-09T01:56:06.321Z,99.90
2018-07-09T01:58:35.673Z,99.90
2018-07-09T02:01:04.949Z,99.90
2018-07-09T02:03:34.661Z,98.00
2018-07-09T02:06:04.042Z,99.80
2018-07-09T02:08:33.447Z,99.80
2018-07-09T02:11:02.647Z,98.70
2018-07-09T02:13:32.086Z,96.80
2018-07-09T02:16:01.358Z,99.90
2018-07-09T02:18:31.176Z,99.90
2018-07-09T02:21:00.353Z,98.60
2018-07-09T02:23:29.596Z,96.50
2018-07-09T02:25:58.865Z,96.10
2018-07-09T02:28:28.036Z,98.90
2018-07-09T02:30:57.577Z,99.90
2018-07-09T02:33:26.929Z,99.00
2018-07-09T02:35:56.105Z,98.40
2018-07-09T02:38:25.391Z,99.90
2018-07-09T02:40:54.555Z,99.90
2018-07-09T02:43:23.618Z,99.90
2018-07-09T02:45:52.968Z,99.90
2018-07-09T02:48:22.157Z,99.90
2018-07-09T02:50:51.608Z,99.90
2018-07-09T02:53:20.668Z,99.80
2018-07-09T02:55:49.925Z,97.90
2018-07-09T02:58:18.998Z,99.40
2018-07-09T03:00:48.248Z,96.90
2018-07-09T03:03:17.544Z,98.30
2018-07-09T03:05:46.874Z,99.20
2018-07-09T03:08:16.237Z,97.30
2018-07-09T03:10:45.597Z,98.60
2018-07-09T03:13:14.988Z,99.40
2018-07-09T03:15:44.436Z,98.00
2018-07-09T03:18:13.866Z,99.00
2018-07-09T03:20:43.370Z,98.00
2018-07-09T03:25:41.764Z,96.40
2018-07-09T03:28:11.116Z,95.50
2018-07-09T03:30:40.630Z,98.60
2018-07-09T03:33:10.000Z,97.50
2018-07-09T03:35:39.449Z,99.90
2018-07-09T03:38:08.777Z,97.70
2018-07-09T03:43:06.748Z,99.90
2018-07-09T03:45:36.058Z,99.90
2018-07-09T03:48:05.580Z,99.90
2018-07-09T03:50:34.849Z,99.90
2018-07-09T03:53:04.188Z,99.90
2018-07-09T03:55:33.281Z,99.90
2018-07-09T03:58:02.617Z,99.90
2018-07-09T04:00:31.784Z,99.90
2018-07-09T04:03:00.924Z,99.90
2018-07-09T04:05:30.249Z,99.90
2018-07-09T04:07:59.466Z,99.90
2018-07-09T04:10:28.624Z,99.90
2018-07-09T04:12:57.669Z,99.90
2018-07-09T04:15:26.992Z,99.90
2018-07-09T04:17:56.301Z,99.90
2018-07-09T04:20:25.464Z,99.90
2018-07-09T04:22:54.826Z,99.90
2018-07-09T04:25:24.190Z,99.90
2018-07-09T04:27:53.436Z,99.90
2018-07-09T04:30:22.933Z,99.90
2018-07-09T04:32:52.160Z,99.90
2018-07-09T04:35:21.332Z,99.90
2018-07-09T04:37:50.367Z,99.90
2018-07-09T04:40:19.549Z,99.90
2018-07-09T04:42:48.700Z,99.90
2018-07-09T04:45:17.875Z,99.90
2018-07-09T04:47:47.270Z,99.90
2018-07-09T04:50:16.503Z,99.90
2018-07-09T04:52:45.752Z,98.90
2018-07-09T04:55:14.957Z,99.90
2018-07-09T04:57:44.372Z,99.90
2018-07-09T05:00:13.576Z,96.90
2018-07-09T05:02:42.765Z,93.50
2018-07-09T05:05:12.112Z,98.10
2018-07-09T05:07:41.368Z,95.50
2018-07-09T05:10:10.625Z,98.10
2018-07-09T05:12:39.804Z,99.90
2018-07-09T05:15:09.060Z,98.10
2018-07-09T05:17:38.528Z,94.00
2018-07-09T05:20:08.154Z,96.40
2018-07-09T05:22:37.779Z,93.60
2018-07-09T05:25:06.968Z,97.60
2018-07-09T05:27:36.236Z,97.00
2018-07-09T05:30:05.681Z,93.90
2018-07-09T05:32:35.000Z,88.30
2018-07-09T05:35:04.404Z,89.40
2018-07-09T05:37:33.693Z,91.20
2018-07-09T05:40:03.189Z,97.50
2018-07-09T05:42:32.572Z,98.30
2018-07-09T05:45:01.976Z,93.60
2018-07-09T05:47:31.206Z,94.50
2018-07-09T05:50:00.461Z,90.10
2018-07-09T05:52:29.818Z,91.80
2018-07-09T05:54:59.195Z,93.50
2018-07-09T05:57:28.630Z,90.20
2018-07-09T05:59:57.800Z,94.10
2018-07-09T06:02:26.960Z,92.70
2018-07-09T06:04:56.120Z,91.00
2018-07-09T06:07:25.564Z,90.50
2018-07-09T06:09:54.740Z,90.60
2018-07-09T06:12:23.909Z,86.40
2018-07-09T06:14:53.268Z,82.30
2018-07-09T06:17:22.724Z,80.20
2018-07-09T06:19:51.880Z,71.90
2018-07-09T06:22:21.314Z,77.00
2018-07-09T06:24:50.696Z,75.10
2018-07-09T06:27:20.135Z,69.50
2018-07-09T06:29:49.827Z,77.40
2018-07-09T06:32:19.164Z,74.20
2018-07-09T06:34:48.538Z,67.90
2018-07-09T06:37:18.140Z,66.50
2018-07-09T06:39:47.442Z,68.30
2018-07-09T06:42:16.673Z,70.70
2018-07-09T06:44:46.589Z,76.10
2018-07-09T06:47:16.049Z,78.20
2018-07-09T06:49:45.292Z,76.90
2018-07-09T06:52:14.464Z,67.40
2018-07-09T06:54:43.868Z,70.80
2018-07-09T06:57:13.009Z,72.10
2018-07-09T06:59:42.326Z,61.20
2018-07-09T07:02:11.573Z,66.50
2018-07-09T07:04:40.907Z,61.70
2018-07-09T07:07:10.285Z,62.40
2018-07-09T07:09:39.651Z,65.70
2018-07-09T07:12:08.920Z,65.20
2018-07-09T07:17:06.984Z,64.00
2018-07-09T07:19:36.449Z,66.40
2018-07-09T07:22:05.633Z,64.40
2018-07-09T07:24:34.863Z,65.20
2018-07-09T07:27:04.073Z,68.90
2018-07-09T07:29:33.220Z,71.60
2018-07-09T07:32:02.628Z,71.30
2018-07-09T07:34:31.985Z,68.90
2018-07-09T07:37:01.322Z,69.10
2018-07-09T07:39:30.497Z,68.90
2018-07-09T07:41:59.860Z,74.90
2018-07-09T07:44:29.076Z,64.30
2018-07-09T07:46:58.470Z,60.60
2018-07-09T07:49:27.736Z,59.00
2018-07-09T07:51:57.267Z,54.40
2018-07-09T07:54:26.711Z,54.80
2018-07-09T07:56:55.985Z,54.70
2018-07-09T07:59:25.195Z,55.80
2018-07-09T08:01:54.438Z,56.20
2018-07-09T08:04:24.053Z,61.20
2018-07-09T08:06:53.363Z,59.50
2018-07-09T08:09:22.654Z,59.20
2018-07-09T08:11:51.974Z,58.40
2018-07-09T08:14:21.248Z,56.80
2018-07-09T08:16:50.404Z,59.30
2018-07-09T08:19:19.796Z,58.00
2018-07-09T08:21:49.072Z,56.00
2018-07-09T08:24:18.376Z,58.40
2018-07-09T08:26:47.803Z,57.10
2018-07-09T08:29:17.122Z,54.90
2018-07-09T08:31:46.271Z,53.10
2018-07-09T08:34:15.540Z,51.40
2018-07-09T08:36:44.808Z,51.70
2018-07-09T08:39:14.128Z,53.50
2018-07-09T08:41:43.485Z,56.60
2018-07-09T08:44:12.840Z,52.50
2018-07-09T08:46:42.104Z,53.90
2018-07-09T08:49:11.385Z,52.50
2018-07-09T08:51:40.425Z,50.20
2018-07-09T08:54:09.936Z,53.80
2018-07-09T08:56:39.116Z,61.40
2018-07-09T08:59:08.392Z,60.60
2018-07-09T09:01:37.396Z,63.20
2018-07-09T09:04:06.762Z,67.00
2018-07-09T09:06:35.861Z,66.80
2018-07-09T09:09:05.854Z,67.10
2018-07-09T09:11:35.131Z,59.20
2018-07-09T09:14:04.344Z,61.20
2018-07-09T09:16:33.719Z,60.20
2018-07-09T09:19:02.869Z,57.40
2018-07-09T09:21:32.172Z,56.60
2018-07-09T09:26:30.205Z,58.50
2018-07-09T09:31:28.082Z,53.60
2018-07-09T09:33:57.402Z,50.10
2018-07-09T09:36:26.740Z,50.90
2018-07-09T09:38:56.048Z,51.10
2018-07-09T09:41:25.335Z,53.10
2018-07-09T09:43:54.808Z,54.70
2018-07-09T09:46:24.291Z,53.00
2018-07-09T09:48:53.397Z,52.00
2018-07-09T09:51:22.685Z,51.30
2018-07-09T09:53:51.884Z,49.60
2018-07-09T09:56:21.382Z,50.30
2018-07-09T09:58:50.612Z,49.20
2018-07-09T10:01:20.080Z,47.80
2018-07-09T10:03:49.372Z,52.10
2018-07-09T10:06:18.631Z,51.50
2018-07-09T10:08:47.877Z,49.20
2018-07-09T10:11:17.190Z,49.60
2018-07-09T10:13:46.618Z,47.90
2018-07-09T10:16:15.824Z,46.70
2018-07-09T10:18:45.009Z,47.50
2018-07-09T10:21:14.174Z,47.40
2018-07-09T10:23:43.460Z,49.20
2018-07-09T10:26:12.612Z,48.90
2018-07-09T10:28:41.904Z,50.60
2018-07-09T10:33:05.792Z,50.50
2018-07-09T10:35:35.064Z,47.30
2018-07-09T10:38:04.444Z,47.70
2018-07-09T10:40:33.453Z,52.40
2018-07-09T10:43:02.689Z,57.40
2018-07-09T10:45:31.962Z,55.70
2018-07-09T10:48:01.173Z,58.00
2018-07-09T10:50:30.426Z,59.00
2018-07-09T10:52:59.533Z,60.50
2018-07-09T10:55:28.833Z,60.60
2018-07-09T10:57:58.193Z,62.80
2018-07-09T11:00:27.485Z,63.50
2018-07-09T11:02:56.860Z,66.00
2018-07-09T11:05:26.272Z,68.90
2018-07-09T11:07:55.587Z,66.10
2018-07-09T11:10:24.989Z,65.00
2018-07-09T11:12:54.209Z,67.30
2018-07-09T11:15:23.473Z,64.80
2018-07-09T11:17:52.648Z,62.80
2018-07-09T11:22:50.837Z,64.30
2018-07-09T11:25:19.945Z,63.60
2018-07-09T11:27:49.034Z,62.30
2018-07-09T11:30:18.200Z,60.80
2018-07-09T11:32:47.480Z,59.90
2018-07-09T11:35:16.742Z,60.70
2018-07-09T11:37:46.049Z,60.00
2018-07-09T11:40:15.393Z,60.10
2018-07-09T11:42:44.681Z,61.90
2018-07-09T11:45:13.952Z,59.90
2018-07-09T11:47:43.123Z,60.10
2018-07-09T11:50:12.493Z,60.80
2018-07-09T11:52:41.925Z,60.60
2018-07-09T11:55:11.348Z,64.70
2018-07-09T11:57:40.841Z,63.10
2018-07-09T12:00:10.089Z,67.10
2018-07-09T12:02:39.760Z,65.30
2018-07-09T12:05:09.156Z,64.90
2018-07-09T12:07:38.449Z,65.00
2018-07-09T12:10:07.615Z,67.60
2018-07-09T12:12:37.002Z,65.70
2018-07-09T12:15:06.460Z,63.90
2018-07-09T12:17:35.736Z,63.40
2018-07-09T12:20:05.121Z,61.30
2018-07-09T12:22:34.292Z,64.60
2018-07-09T12:25:03.512Z,68.20
2018-07-09T12:27:32.876Z,71.50
2018-07-09T12:30:02.121Z,73.40
2018-07-09T12:32:31.315Z,74.30
2018-07-09T12:35:00.504Z,74.80
2018-07-09T12:37:29.768Z,75.60
2018-07-09T12:39:58.952Z,72.00
2018-07-09T12:42:28.104Z,72.60
2018-07-09T12:44:57.191Z,74.40
2018-07-09T12:47:26.456Z,71.30
2018-07-09T12:49:55.639Z,67.90
2018-07-09T12:52:24.892Z,68.90
2018-07-09T12:54:54.367Z,69.90
2018-07-09T12:57:23.656Z,66.40
2018-07-09T12:59:52.733Z,70.80
2018-07-09T13:02:22.100Z,71.90
2018-07-09T13:04:51.388Z,76.10
2018-07-09T13:07:20.565Z,72.90
2018-07-09T13:09:49.876Z,69.00
2018-07-09T13:12:24.192Z,67.70
2018-07-09T13:14:53.405Z,67.60
2018-07-09T13:17:22.737Z,66.60
2018-07-09T13:19:52.209Z,67.10
2018-07-09T13:22:21.484Z,67.00
2018-07-09T13:24:51.120Z,68.20
2018-07-09T13:27:20.480Z,68.00
2018-07-09T13:29:49.808Z,68.20
2018-07-09T13:32:19.088Z,69.30
2018-07-09T13:34:48.453Z,67.80
2018-07-09T13:37:17.852Z,76.10
2018-07-09T13:39:47.100Z,72.40
2018-07-09T13:42:16.414Z,71.60
2018-07-09T13:44:45.956Z,69.50
2018-07-09T13:47:15.224Z,71.40
2018-07-09T13:49:44.509Z,67.20
2018-07-09T13:52:13.789Z,65.90
2018-07-09T13:54:43.259Z,65.40
2018-07-09T13:57:12.644Z,62.80
2018-07-09T14:02:10.585Z,63.00
2018-07-09T14:04:40.060Z,63.60
2018-07-09T14:07:09.225Z,62.60
2018-07-09T14:09:38.458Z,65.90
2018-07-09T14:12:07.919Z,65.30
2018-07-09T14:14:37.204Z,66.10
2018-07-09T14:17:06.569Z,66.80
2018-07-09T14:20:41.240Z,66.50
2018-07-09T14:23:11.545Z,66.50
2018-07-09T14:25:40.920Z,65.10
2018-07-09T14:28:10.236Z,67.50
2018-07-09T14:30:39.532Z,69.20
2018-07-09T14:33:08.948Z,69.20
2018-07-09T14:35:38.072Z,68.60
2018-07-09T14:38:07.649Z,68.10
2018-07-09T14:40:36.921Z,70.30
2018-07-09T14:43:06.188Z,74.30
2018-07-09T14:45:35.520Z,73.80
2018-07-09T14:48:04.853Z,75.50
2018-07-09T14:50:34.016Z,70.60
2018-07-09T14:53:03.184Z,72.30
2018-07-09T14:55:32.363Z,70.90
2018-07-09T14:58:01.617Z,71.00
2018-07-09T15:00:30.805Z,74.20
2018-07-09T15:03:00.188Z,76.20
2018-07-09T15:05:29.401Z,74.10
2018-07-09T15:07:58.552Z,76.90
2018-07-09T15:10:27.737Z,74.90
2018-07-09T15:12:56.976Z,75.00
2018-07-09T15:15:26.392Z,72.00
2018-07-09T15:17:55.581Z,73.00
2018-07-09T15:20:24.723Z,73.50
2018-07-09T15:22:54.037Z,76.20
2018-07-09T15:25:23.280Z,78.00
2018-07-09T15:27:52.575Z,76.50
2018-07-09T15:30:21.831Z,77.40
2018-07-09T15:32:51.161Z,77.00
2018-07-09T15:35:20.368Z,76.00
2018-07-09T15:37:49.465Z,78.30
2018-07-09T15:40:18.827Z,78.40
2018-07-09T15:42:48.264Z,76.50
2018-07-09T15:45:17.484Z,74.70
2018-07-09T15:47:46.769Z,73.40
2018-07-09T15:50:16.140Z,72.80
2018-07-09T15:52:45.325Z,74.90
2018-07-09T15:55:14.887Z,73.10
2018-07-09T15:57:44.057Z,73.50
2018-07-09T16:02:42.410Z,72.50
2018-07-09T16:05:11.648Z,71.90
2018-07-09T16:07:40.783Z,70.00
2018-07-09T16:10:09.976Z,72.40
2018-07-09T16:12:39.238Z,71.50
2018-07-09T16:15:08.565Z,78.50
2018-07-09T16:17:37.889Z,78.20
2018-07-09T16:20:07.272Z,75.60
2018-07-09T16:22:36.328Z,78.00
2018-07-09T16:25:05.659Z,77.60
2018-07-09T16:27:34.989Z,79.40
2018-07-09T16:30:04.257Z,79.60
2018-07-09T16:32:33.420Z,76.50
2018-07-09T16:35:02.648Z,75.40
2018-07-09T16:37:31.860Z,75.00
2018-07-09T16:40:01.053Z,78.30
2018-07-09T16:42:30.423Z,78.60
2018-07-09T16:44:59.611Z,82.60
2018-07-09T16:47:28.704Z,86.30
2018-07-09T16:49:57.844Z,87.60
2018-07-09T16:52:27.308Z,86.00
2018-07-09T16:54:56.412Z,87.60
2018-07-09T16:57:25.748Z,87.50
2018-07-09T16:59:54.924Z,86.40
2018-07-09T17:02:24.376Z,83.30
2018-07-09T17:04:53.839Z,81.40
2018-07-09T17:07:23.134Z,82.30
2018-07-09T17:09:52.495Z,82.70
2018-07-09T17:12:21.824Z,82.40
2018-07-09T17:14:51.149Z,83.40
2018-07-09T17:17:20.439Z,82.60
2018-07-09T17:19:49.856Z,83.60
2018-07-09T17:22:19.072Z,84.10
2018-07-09T17:24:48.232Z,86.10
2018-07-09T17:27:17.374Z,84.70
2018-07-09T17:29:46.576Z,83.90
2018-07-09T17:32:15.786Z,85.30
2018-07-09T17:34:45.127Z,86.00
2018-07-09T17:37:14.512Z,85.80
2018-07-09T17:39:44.083Z,90.70
2018-07-09T17:42:13.364Z,91.10
2018-07-09T17:44:42.532Z,90.00
2018-07-09T17:47:11.709Z,91.60
2018-07-09T17:49:40.784Z,92.50
2018-07-09T17:52:10.057Z,91.90
2018-07-09T17:54:39.276Z,92.40
2018-07-09T17:57:08.559Z,93.30
2018-07-09T17:59:37.833Z,92.50
2018-07-09T18:02:07.199Z,92.80
2018-07-09T18:04:36.368Z,92.30
2018-07-09T18:07:06.140Z,92.90
2018-07-09T18:09:35.992Z,92.00
2018-07-09T18:12:05.322Z,93.00
2018-07-09T18:14:34.528Z,94.50
2018-07-09T18:17:03.986Z,95.10
2018-07-09T18:19:33.159Z,96.50
2018-07-09T18:22:02.686Z,95.70
2018-07-09T18:24:32.040Z,95.70
2018-07-09T18:27:01.148Z,96.20
2018-07-09T18:29:30.549Z,95.50
2018-07-09T18:31:59.812Z,97.40
2018-07-09T18:34:28.960Z,96.50
2018-07-09T18:36:58.356Z,95.70
2018-07-09T18:39:27.559Z,96.20
2018-07-09T18:41:56.818Z,96.20
2018-07-09T18:44:26.089Z,95.80
2018-07-09T18:46:55.460Z,97.30
2018-07-09T18:49:24.992Z,98.40
2018-07-09T18:51:54.223Z,99.70
2018-07-09T18:54:23.500Z,97.70
2018-07-09T18:56:53.051Z,96.70
2018-07-09T18:59:22.494Z,94.20
2018-07-09T19:01:51.681Z,95.30
2018-07-09T19:04:21.150Z,96.40
2018-07-09T19:06:55.893Z,97.90
2018-07-09T19:09:26.091Z,98.30
2018-07-09T19:14:27.213Z,96.80
2018-07-09T19:18:13.269Z,96.10
2018-07-09T19:21:30.355Z,97.50
2018-07-09T19:23:58.463Z,99.50
2018-07-09T19:26:26.231Z,99.90
2018-07-09T19:28:54.018Z,99.20
2018-07-09T19:31:22.088Z,99.90
2018-07-09T19:33:49.832Z,99.40
2018-07-09T19:36:17.870Z,99.60
2018-07-09T19:38:45.684Z,99.90
2018-07-09T19:41:13.554Z,98.40
2018-07-09T19:43:41.368Z,99.40
2018-07-09T19:46:09.520Z,98.10
2018-07-09T19:48:37.329Z,98.70
2018-07-09T19:51:05.226Z,98.70
2018-07-09T19:53:33.155Z,99.90
2018-07-09T19:56:01.024Z,99.90
2018-07-09T19:58:28.891Z,99.90
2018-07-09T20:00:56.606Z,99.90
2018-07-09T20:03:24.410Z,99.90
2018-07-09T20:05:52.362Z,99.90
2018-07-09T20:08:20.073Z,99.90
2018-07-09T20:10:52.884Z,99.90
2018-07-09T20:13:25.693Z,99.90
2018-07-09T20:15:58.574Z,99.90
2018-07-09T20:18:26.465Z,99.90
2018-07-09T20:20:54.322Z,99.90
2018-07-09T20:23:22.147Z,99.90
2018-07-09T20:25:49.944Z,99.90
2018-07-09T20:28:17.748Z,99.90
2018-07-09T20:30:45.602Z,99.90
2018-07-09T20:33:13.406Z,99.90
2018-07-09T20:35:41.325Z,99.90
2018-07-09T20:38:09.293Z,99.90
2018-07-09T20:40:36.939Z,99.90
2018-07-09T20:43:04.871Z,99.90
2018-07-09T20:45:32.679Z,99.90
2018-07-09T20:48:00.547Z,99.90
2018-07-09T20:50:28.256Z,99.90
2018-07-09T20:52:56.149Z,99.90
2018-07-09T20:55:23.910Z,99.70
2018-07-09T20:57:51.705Z,99.70
2018-07-09T21:00:19.417Z,99.90
2018-07-09T21:02:47.286Z,99.90
2018-07-09T21:05:14.992Z,99.90
2018-07-09T21:07:42.973Z,99.90
2018-07-09T21:10:10.653Z,99.90
2018-07-09T21:13:11.423Z,99.90
2018-07-09T21:15:39.079Z,99.90
2018-07-09T21:18:06.925Z,99.60
2018-07-09T21:20:34.717Z,99.90
2018-07-09T21:23:02.674Z,99.90
2018-07-09T21:25:30.386Z,99.60
2018-07-09T21:27:58.172Z,99.90
2018-07-09T21:30:26.145Z,99.90
2018-07-09T21:32:53.933Z,99.90
2018-07-09T21:35:21.640Z,99.90
2018-07-09T21:37:49.362Z,98.70
2018-07-09T21:40:17.221Z,99.90
2018-07-09T21:42:45.023Z,99.90
2018-07-09T21:45:12.984Z,99.90
2018-07-09T21:47:40.592Z,99.90
2018-07-09T21:50:08.397Z,99.90
2018-07-09T21:52:36.253Z,99.90
2018-07-09T21:55:04.270Z,99.90
2018-07-09T21:57:32.049Z,99.80
2018-07-09T21:59:59.940Z,99.30
2018-07-09T22:02:27.781Z,99.10
2018-07-09T22:04:55.601Z,99.90
2018-07-09T22:07:23.431Z,97.40
2018-07-09T22:09:51.282Z,99.90
2018-07-09T22:12:19.177Z,99.90
2018-07-09T22:14:46.984Z,99.90
2018-07-09T22:17:14.745Z,98.50
2018-07-09T22:19:42.603Z,99.90
2018-07-09T22:22:10.365Z,99.90
2018-07-09T22:24:38.247Z,99.90
2018-07-09T22:27:06.060Z,99.90
2018-07-09T22:29:33.840Z,99.00
2018-07-09T22:32:03.461Z,98.30
2018-07-09T22:34:32.752Z,98.60
2018-07-09T22:37:02.092Z,99.90
2018-07-09T22:39:31.477Z,98.90
2018-07-09T22:42:00.708Z,99.70
2018-07-09T22:44:30.026Z,98.40
2018-07-09T22:46:59.445Z,97.20
2018-07-09T22:49:28.836Z,99.60
2018-07-09T22:51:58.163Z,98.60
2018-07-09T22:54:27.454Z,99.20
2018-07-09T22:56:56.800Z,97.20
2018-07-09T22:59:26.179Z,99.90
2018-07-09T23:01:55.400Z,99.70
2018-07-09T23:04:24.596Z,99.10
2018-07-09T23:06:53.824Z,99.90
2018-07-09T23:09:49.772Z,99.90
2018-07-09T23:12:26.972Z,99.90
2018-07-09T23:16:37.881Z,99.90
2018-07-09T23:19:22.319Z,99.90
2018-07-09T23:22:25.860Z,99.90
2018-07-09T23:24:53.823Z,99.90
2018-07-09T23:27:21.625Z,99.90
2018-07-09T23:29:49.570Z,99.90
2018-07-09T23:32:17.559Z,99.90
2018-07-09T23:34:45.439Z,99.90
2018-07-09T23:37:13.024Z,99.90
2018-07-09T23:39:40.809Z,99.90
2018-07-09T23:42:08.693Z,99.90
2018-07-09T23:44:36.544Z,99.90
2018-07-09T23:47:04.444Z,99.90
2018-07-09T23:49:32.409Z,99.90
2018-07-09T23:52:00.217Z,99.90
2018-07-09T23:54:28.063Z,99.90
2018-07-09T23:58:05.982Z,99.90
